createdAt,value
2019-01-10T00:04:39.389Z,5
2019-01-10T00:09:41.902Z,5
2019-01-10T00:14:44.322Z,4
2019-01-10T00:19:46.774Z,3
2019-01-10T00:24:49.284Z,5
2019-01-10T00:29:51.765Z,4
2019-01-10T00:34:54.172Z,5
2019-01-10T00:39:56.643Z,6
2019-01-10T00:44:59.093Z,5
2019-01-10T00:50:01.602Z,3
2019-01-10T01:00:06.547Z,3
2019-01-10T01:05:08.953Z,3
2019-01-10T01:10:11.439Z,2
2019-01-10T01:15:13.991Z,2
2019-01-10T01:20:16.446Z,1
2019-01-10T01:25:18.831Z,1
2019-01-10T01:30:21.309Z,1
2019-01-10T01:35:23.814Z,1
2019-01-10T01:40:26.266Z,1
2019-01-10T01:45:28.662Z,1
2019-01-10T01:50:31.182Z,1
2019-01-10T01:55:33.580Z,0
2019-01-10T02:00:36.057Z,1
2019-01-10T02:05:38.620Z,1
2019-01-10T02:10:41.076Z,1
2019-01-10T02:15:43.441Z,1
2019-01-10T02:20:45.890Z,1
2019-01-10T02:25:48.358Z,1
2019-01-10T02:30:50.843Z,2
2019-01-10T02:35:53.293Z,2
2019-01-10T02:40:55.751Z,1
2019-01-10T02:45:58.235Z,2
2019-01-10T02:51:00.693Z,1
2019-01-10T02:56:03.140Z,2
2019-01-10T03:01:05.768Z,2
2019-01-10T03:06:08.156Z,3
2019-01-10T03:11:10.531Z,3
2019-01-10T03:16:13.052Z,3
2019-01-10T03:21:15.449Z,2
2019-01-10T03:26:17.915Z,4
2019-01-10T03:31:20.394Z,4
2019-01-10T03:36:22.842Z,5
2019-01-10T03:41:25.311Z,5
2019-01-10T03:46:27.787Z,7
2019-01-10T03:51:30.236Z,5
2019-01-10T03:56:32.694Z,7
2019-01-10T04:01:35.187Z,8
2019-01-10T04:06:39.690Z,9
2019-01-10T04:11:40.076Z,9
2019-01-10T04:16:42.614Z,13
2019-01-10T04:21:45.003Z,12
2019-01-10T04:26:47.503Z,14
2019-01-10T04:31:49.941Z,12
2019-01-10T04:36:52.396Z,15
2019-01-10T04:41:54.869Z,17
2019-01-10T04:46:57.344Z,16
2019-01-10T04:51:59.789Z,11
2019-01-10T04:57:02.409Z,10
2019-01-10T05:02:18.215Z,11
2019-01-10T05:07:07.176Z,10
2019-01-10T05:12:09.668Z,13
2019-01-10T05:17:12.499Z,12
2019-01-10T05:22:14.559Z,10
2019-01-10T05:27:17.044Z,7
2019-01-10T05:32:19.537Z,5
2019-01-10T05:37:21.962Z,5
2019-01-10T05:42:24.490Z,4
2019-01-10T05:47:26.911Z,4
2019-01-10T05:52:29.367Z,2
2019-01-10T05:57:31.809Z,2
2019-01-10T06:02:34.273Z,4
2019-01-10T06:07:36.733Z,3
2019-01-10T06:12:39.206Z,3
2019-01-10T06:17:41.670Z,2
2019-01-10T06:22:44.170Z,2
2019-01-10T06:27:46.601Z,3
2019-01-10T06:32:49.048Z,3
2019-01-10T06:37:51.525Z,2
2019-01-10T06:42:54.030Z,3
2019-01-10T06:47:56.438Z,2
2019-01-10T06:52:58.907Z,6
2019-01-10T07:03:03.833Z,4
2019-01-10T07:08:06.300Z,5
2019-01-10T07:13:08.775Z,4
2019-01-10T07:18:11.223Z,4
2019-01-10T07:23:13.761Z,4
2019-01-10T07:28:16.209Z,4
2019-01-10T07:33:18.614Z,5
2019-01-10T07:38:21.071Z,5
2019-01-10T07:43:23.584Z,5
2019-01-10T07:48:26.080Z,6
2019-01-10T07:53:28.543Z,4
2019-01-10T07:58:30.922Z,5
2019-01-10T08:03:33.380Z,6
2019-01-10T08:08:35.841Z,5
2019-01-10T08:13:38.313Z,5
2019-01-10T08:18:40.779Z,6
2019-01-10T08:23:43.286Z,10
2019-01-10T08:28:45.775Z,5
2019-01-10T08:33:48.162Z,5
2019-01-10T08:38:50.636Z,4
2019-01-10T08:43:53.103Z,6
2019-01-10T08:48:55.557Z,4
2019-01-10T08:53:58.025Z,5
2019-01-10T08:59:00.491Z,4
2019-01-10T09:04:02.992Z,5
2019-01-10T09:09:05.521Z,6
2019-01-10T09:14:07.912Z,4
2019-01-10T09:19:10.374Z,4
2019-01-10T09:24:12.824Z,3
2019-01-10T09:29:15.320Z,3
2019-01-10T09:34:24.499Z,3
2019-01-10T09:39:20.212Z,3
2019-01-10T09:44:22.666Z,3
2019-01-10T09:49:25.137Z,3
2019-01-10T09:54:27.584Z,4
2019-01-10T09:59:30.030Z,4
2019-01-10T10:04:32.545Z,3
2019-01-10T10:09:34.966Z,3
2019-01-10T10:14:37.502Z,4
2019-01-10T10:19:39.929Z,5
2019-01-10T10:24:42.375Z,3
2019-01-10T10:29:44.821Z,4
2019-01-10T10:34:47.365Z,2
2019-01-10T10:39:49.754Z,3
2019-01-10T10:44:52.206Z,2
2019-01-10T10:49:54.674Z,3
2019-01-10T10:54:57.149Z,5
2019-01-10T10:59:59.616Z,4
2019-01-10T11:05:02.141Z,3
2019-01-10T11:10:04.566Z,6
2019-01-10T11:15:07.016Z,4
2019-01-10T11:20:09.450Z,5
2019-01-10T11:25:11.910Z,7
2019-01-10T11:30:14.371Z,5
2019-01-10T11:35:16.842Z,6
2019-01-10T11:40:19.310Z,3
2019-01-10T11:45:21.763Z,3
2019-01-10T11:50:24.241Z,5
2019-01-10T11:55:26.691Z,4
2019-01-10T12:00:29.151Z,3
2019-01-10T12:05:31.616Z,8
2019-01-10T12:10:34.130Z,4
2019-01-10T12:15:36.536Z,3
2019-01-10T12:20:38.981Z,6
2019-01-10T12:25:41.452Z,6
2019-01-10T12:30:43.915Z,4
2019-01-10T12:35:46.422Z,7
2019-01-10T12:40:48.900Z,5
2019-01-10T12:45:51.297Z,4
2019-01-10T12:50:53.760Z,6
2019-01-10T12:55:56.232Z,5
2019-01-10T13:00:58.690Z,4
2019-01-10T13:06:01.204Z,4
2019-01-10T13:11:03.609Z,4
2019-01-10T13:16:06.091Z,4
2019-01-10T13:21:09.699Z,4
2019-01-10T13:26:10.996Z,4
2019-01-10T13:31:13.469Z,5
2019-01-10T13:36:15.936Z,5
2019-01-10T13:41:18.411Z,5
2019-01-10T13:46:20.868Z,5
2019-01-10T13:51:23.325Z,6
2019-01-10T13:56:25.811Z,6
2019-01-10T14:01:28.255Z,4
2019-01-10T14:06:30.736Z,9
2019-01-10T14:11:33.252Z,8
2019-01-10T14:16:35.658Z,5
2019-01-10T14:21:38.130Z,6
2019-01-10T14:26:40.626Z,5
2019-01-10T14:31:43.050Z,5
2019-01-10T14:36:45.501Z,6
2019-01-10T14:41:48.007Z,5
2019-01-10T14:46:50.449Z,5
2019-01-10T14:51:52.925Z,8
2019-01-10T14:56:58.016Z,6
2019-01-10T15:01:57.848Z,5
2019-01-10T15:07:00.299Z,7
2019-01-10T15:12:02.820Z,5
2019-01-10T15:17:05.227Z,4
2019-01-10T15:22:07.703Z,5
2019-01-10T15:27:10.225Z,8
2019-01-10T15:32:12.630Z,5
2019-01-10T15:37:15.085Z,6
2019-01-10T15:42:17.557Z,8
2019-01-10T15:47:20.117Z,6
2019-01-10T15:52:22.473Z,7
2019-01-10T15:57:25.117Z,9
2019-01-10T16:02:27.399Z,6
2019-01-10T16:07:29.871Z,4
2019-01-10T16:12:32.366Z,5
2019-01-10T16:17:34.790Z,10
2019-01-10T16:22:37.298Z,8
2019-01-10T16:27:39.737Z,7
2019-01-10T16:32:42.190Z,8
2019-01-10T16:37:44.903Z,6
2019-01-10T16:42:47.125Z,8
2019-01-10T16:47:49.582Z,6
2019-01-10T16:52:52.069Z,10
2019-01-10T17:02:56.997Z,11
2019-01-10T17:07:59.440Z,11
2019-01-10T17:13:01.929Z,11
2019-01-10T17:18:04.441Z,13
2019-01-10T17:23:06.834Z,13
2019-01-10T17:28:09.305Z,10
2019-01-10T17:33:12.067Z,16
2019-01-10T17:38:14.236Z,16
2019-01-10T17:43:16.733Z,13
2019-01-10T17:48:19.161Z,14
2019-01-10T17:53:21.637Z,16
2019-01-10T17:58:24.097Z,21
2019-01-10T18:03:26.560Z,12
2019-01-10T18:08:29.019Z,11
2019-01-10T18:13:31.470Z,13
2019-01-10T18:18:33.967Z,12
2019-01-10T18:23:36.408Z,11
2019-01-10T18:28:38.872Z,11
2019-01-10T18:33:41.350Z,10
2019-01-10T18:38:43.796Z,7
2019-01-10T18:43:47.016Z,9
2019-01-10T18:48:48.711Z,6
2019-01-10T18:53:51.199Z,10
2019-01-10T18:58:53.634Z,6
2019-01-10T19:03:56.122Z,7
2019-01-10T19:08:58.563Z,7
2019-01-10T19:14:01.056Z,8
2019-01-10T19:19:03.489Z,11
2019-01-10T19:24:05.959Z,9
2019-01-10T19:29:08.430Z,10
2019-01-10T19:34:10.895Z,7
2019-01-10T19:39:13.365Z,9
2019-01-10T19:44:15.852Z,6
2019-01-10T19:49:18.261Z,10
2019-01-10T19:54:20.722Z,5
2019-01-10T19:59:24.027Z,9
2019-01-10T20:04:25.650Z,8
2019-01-10T20:09:29.995Z,7
2019-01-10T20:14:30.597Z,7
2019-01-10T20:19:33.035Z,7
2019-01-10T20:24:35.517Z,8
2019-01-10T20:29:37.955Z,7
2019-01-10T20:34:40.410Z,8
2019-01-10T20:39:42.878Z,8
2019-01-10T20:44:45.350Z,7
2019-01-10T20:54:50.275Z,7
2019-01-10T20:59:52.739Z,6
2019-01-10T21:04:55.178Z,8
2019-01-10T21:09:57.670Z,8
2019-01-10T21:15:00.187Z,9
2019-01-10T21:20:02.740Z,9
2019-01-10T21:25:05.073Z,9
2019-01-10T21:30:07.476Z,10
2019-01-10T21:40:12.424Z,8
2019-01-10T21:45:14.863Z,10
2019-01-10T21:50:17.430Z,8
2019-01-10T21:55:20.833Z,10
2019-01-10T22:00:22.262Z,14
2019-01-10T22:05:24.715Z,13
2019-01-10T22:10:27.203Z,12
2019-01-10T22:15:29.637Z,12
2019-01-10T22:20:32.111Z,14
2019-01-10T22:25:34.569Z,13
2019-01-10T22:30:37.030Z,14
2019-01-10T22:35:39.504Z,11
2019-01-10T22:40:41.988Z,11
2019-01-10T22:45:44.424Z,11
2019-01-10T22:50:46.891Z,11
2019-01-10T22:55:49.351Z,11
2019-01-10T23:00:51.894Z,9
2019-01-10T23:05:54.250Z,11
2019-01-10T23:10:56.718Z,13
2019-01-10T23:15:59.171Z,12
2019-01-10T23:21:01.644Z,9
2019-01-10T23:26:04.115Z,10
2019-01-10T23:31:06.570Z,10
2019-01-10T23:36:09.044Z,12
2019-01-10T23:41:11.479Z,10
2019-01-10T23:46:13.969Z,9
2019-01-10T23:51:16.416Z,10
2019-01-10T23:56:18.880Z,10
